Flight Track Log - Related Links

Times and Time Zones

All times are in EDT time to prevent confusion due to time zone crossing. See the LNI33 flight status page for this flight to view local times or setup timezone preferences in your user account.


Time Position Orientation Groundspeed Altitude Reporting Facility
EDT Latitude Longitude Course Direction KTS MPH feet Rate Location/Type
Thu 07:28:57 AM -7.7899 113.1637 296° West 467 537 33,100  Level FlightAware ADS-B (EGLW)
Thu 07:29:53 AM -7.7479 113.0770 296° West 467 537 34,100 1,082 Climbing FlightAware ADS-B (EGLW)
Thu 07:30:59 AM -7.6735 112.9224 296° West 461 531 35,300 1,030 Climbing FlightAware ADS-B (EGLW)
Thu 07:31:32 AM -7.6445 112.8623 296° West 459 528 35,800 609 Climbing FlightAware ADS-B
Thu 07:32:08 AM -7.6105 112.7922 296° West 458 527 36,000 171 Climbing FlightAware ADS-B
Thu 07:32:42 AM -7.5815 112.7333 297° West 458 527 36,000  Level FlightAware ADS-B
Thu 07:33:17 AM -7.5442 112.6587 297° West 457 526 36,000  Level FlightAware ADS-B
Thu 07:33:53 AM -7.5126 112.5946 296° West 457 526 36,000  Level FlightAware ADS-B
Thu 07:34:26 AM -7.4797 112.5265 296° West 457 526 36,000  Level FlightAware ADS-B
Thu 07:35:00 AM -7.4485 112.4610 295° West 456 525 36,000  Level FlightAware ADS-B
Thu 07:35:30 AM -7.4214 112.4033 295° West 458 527 36,000  Level FlightAware ADS-B
Thu 07:37:00 AM -7.5311 112.6325 305° West 461 531 36,000  Level FlightAware ADS-B (EGLW)
Thu 07:39:00 AM -7.4032 112.0733 283° West  Level Estimated
Thu 07:40:00 AM -7.3390 111.7938 283° West  Level Estimated
Thu 07:41:00 AM -7.2745 111.5144 283° West  Level Estimated
Thu 07:42:00 AM -7.2100 111.2351 283° West  Level Estimated
Thu 07:43:00 AM -7.1452 110.9559 283° West  Level Estimated
Thu 07:44:00 AM -7.0803 110.6768 283° West  Level Estimated
Thu 07:45:00 AM -7.0152 110.3977 283° West  Level Estimated
Thu 07:46:00 AM -6.9500 110.1187 283° West  Level Estimated
Thu 07:47:00 AM -6.8846 109.8398 283° West  Level Estimated
Thu 07:48:00 AM -6.8190 109.5610 283° West  Level Estimated
Thu 07:49:00 AM -6.7533 109.2822 283° West  Level Estimated
Thu 07:50:00 AM -6.6874 109.0036 283° West  Level Estimated
Thu 07:51:00 AM -6.6213 108.7250 283° West  Level Estimated
Thu 07:52:00 AM -6.5552 108.4464 283° West  Level Estimated
Thu 07:53:00 AM -6.4888 108.1680 283° West  Level Estimated
Thu 07:54:00 AM -6.4223 107.8896 284° West  Level Estimated
Thu 07:55:00 AM -6.3556 107.6113 284° West  Level Estimated
Thu 07:56:00 AM -6.2888 107.3331 284° West  Level Estimated
Thu 07:57:00 AM -6.2219 107.0549 284° West  Level Estimated
Thu 07:58:00 AM -6.1548 106.7768 284° West  Level Estimated
Thu 07:59:00 AM -6.1256 106.6559 284° West  Level Estimated
Thu 08:00:00 AM -6.1256 106.6559 North  Level Estimated
Thu 08:01:00 AM -6.1256 106.6559 North  Level Estimated
Thu 08:02:00 AM -6.1256 106.6559 North  Level Estimated
Thu 08:03:00 AM -6.1256 106.6559 North  Level Estimated
Thu 08:04:00 AM -6.1256 106.6559 North  Level Estimated
Thu 08:05:00 AM -6.1256 106.6559 North  Level Estimated
Thu 08:06:00 AM -6.1256 106.6559 North  Level Estimated
Thu 08:07:00 AM -6.1256 106.6559 North  Level Estimated
Thu 08:08:00 AM -6.1256 106.6559 North  Level Estimated
Thu 08:09:00 AM -6.1256 106.6559 North  Level Estimated
Thu 08:10:00 AM -6.1256 106.6559 North  Level Estimated
Thu 08:11:00 AM -6.1256 106.6559 North  Level Estimated
Thu 08:12:00 AM -6.1256 106.6559 North  Level Estimated
Thu 08:13:00 AM -6.1256 106.6559 North  Level Estimated
Thu 08:14:00 AM -6.1256 106.6559 North  Level Estimated
Thu 08:15:00 AM -6.1256 106.6559 North  Level Estimated
Thu 08:16:00 AM -6.1256 106.6559 North  Level Estimated

Login

Don't have an account? Register now (free) for customized features, flight alerts, and more!